sensor_id;sensor_type;location;lat;lon;timestamp;P1;durP1;ratioP1;P2;durP2;ratioP2
27666;SDS011;15074;50.940;5.282;2022-10-26T00:00:06;8.48;;;6.03;;
27666;SDS011;15074;50.940;5.282;2022-10-26T00:02:32;6.32;;;5.20;;
27666;SDS011;15074;50.940;5.282;2022-10-26T00:04:58;8.52;;;5.10;;
27666;SDS011;15074;50.940;5.282;2022-10-26T00:07:24;6.65;;;5.20;;
27666;SDS011;15074;50.940;5.282;2022-10-26T00:09:49;7.88;;;4.70;;
27666;SDS011;15074;50.940;5.282;2022-10-26T00:12:15;9.13;;;5.25;;
27666;SDS011;15074;50.940;5.282;2022-10-26T00:14:40;8.23;;;4.32;;
27666;SDS011;15074;50.940;5.282;2022-10-26T00:17:06;5.18;;;4.43;;
27666;SDS011;15074;50.940;5.282;2022-10-26T00:19:32;6.55;;;4.07;;
27666;SDS011;15074;50.940;5.282;2022-10-26T00:21:59;8.32;;;5.18;;
27666;SDS011;15074;50.940;5.282;2022-10-26T00:24:24;7.85;;;3.83;;
27666;SDS011;15074;50.940;5.282;2022-10-26T00:26:50;7.40;;;4.43;;
27666;SDS011;15074;50.940;5.282;2022-10-26T00:29:16;11.40;;;4.70;;
27666;SDS011;15074;50.940;5.282;2022-10-26T00:31:42;7.05;;;3.97;;
27666;SDS011;15074;50.940;5.282;2022-10-26T00:34:08;6.65;;;4.15;;
27666;SDS011;15074;50.940;5.282;2022-10-26T00:36:35;7.43;;;4.00;;
27666;SDS011;15074;50.940;5.282;2022-10-26T00:39:01;5.43;;;3.50;;
27666;SDS011;15074;50.940;5.282;2022-10-26T00:41:28;5.90;;;3.88;;
27666;SDS011;15074;50.940;5.282;2022-10-26T00:43:56;7.35;;;3.58;;
27666;SDS011;15074;50.940;5.282;2022-10-26T00:46:25;4.95;;;3.60;;
27666;SDS011;15074;50.940;5.282;2022-10-26T00:49:00;7.50;;;3.92;;
27666;SDS011;15074;50.940;5.282;2022-10-26T00:51:36;9.85;;;3.33;;
27666;SDS011;15074;50.940;5.282;2022-10-26T00:54:07;5.60;;;3.28;;
27666;SDS011;15074;50.940;5.282;2022-10-26T00:56:36;6.90;;;3.33;;
27666;SDS011;15074;50.940;5.282;2022-10-26T00:59:03;9.82;;;3.80;;
27666;SDS011;15074;50.940;5.282;2022-10-26T01:01:32;5.53;;;3.22;;
27666;SDS011;15074;50.940;5.282;2022-10-26T01:03:59;7.38;;;3.60;;
27666;SDS011;15074;50.940;5.282;2022-10-26T01:06:25;9.73;;;3.78;;
27666;SDS011;15074;50.940;5.282;2022-10-26T01:08:53;5.38;;;3.65;;
27666;SDS011;15074;50.940;5.282;2022-10-26T01:11:19;5.10;;;3.10;;
27666;SDS011;15074;50.940;5.282;2022-10-26T01:13:44;4.70;;;3.67;;
27666;SDS011;15074;50.940;5.282;2022-10-26T01:32:39;6.28;;;3.75;;
27666;SDS011;15074;50.940;5.282;2022-10-26T01:35:13;6.43;;;2.85;;
27666;SDS011;15074;50.940;5.282;2022-10-26T01:37:45;4.15;;;2.85;;
27666;SDS011;15074;50.940;5.282;2022-10-26T01:40:24;6.85;;;3.03;;
27666;SDS011;15074;50.940;5.282;2022-10-26T01:42:53;11.60;;;3.30;;
27666;SDS011;15074;50.940;5.282;2022-10-26T01:45:23;8.25;;;3.55;;
27666;SDS011;15074;50.940;5.282;2022-10-26T01:47:49;13.00;;;4.03;;
27666;SDS011;15074;50.940;5.282;2022-10-26T01:50:18;7.72;;;3.08;;
27666;SDS011;15074;50.940;5.282;2022-10-26T01:52:47;12.00;;;3.17;;
27666;SDS011;15074;50.940;5.282;2022-10-26T02:12:29;4.15;;;2.33;;
27666;SDS011;15074;50.940;5.282;2022-10-26T02:15:07;5.50;;;3.17;;
27666;SDS011;15074;50.940;5.282;2022-10-26T02:21:03;6.40;;;2.90;;
27666;SDS011;15074;50.940;5.282;2022-10-26T02:23:33;7.43;;;3.22;;
27666;SDS011;15074;50.940;5.282;2022-10-26T02:26:01;5.40;;;2.95;;
27666;SDS011;15074;50.940;5.282;2022-10-26T02:28:35;8.27;;;4.07;;
27666;SDS011;15074;50.940;5.282;2022-10-26T02:31:04;6.90;;;3.38;;
27666;SDS011;15074;50.940;5.282;2022-10-26T02:33:32;3.80;;;2.75;;
27666;SDS011;15074;50.940;5.282;2022-10-26T02:36:03;7.07;;;2.63;;
27666;SDS011;15074;50.940;5.282;2022-10-26T02:38:32;5.30;;;2.70;;
27666;SDS011;15074;50.940;5.282;2022-10-26T02:41:02;4.25;;;2.88;;
27666;SDS011;15074;50.940;5.282;2022-10-26T02:43:28;7.43;;;3.42;;
27666;SDS011;15074;50.940;5.282;2022-10-26T02:48:26;5.28;;;3.10;;
27666;SDS011;15074;50.940;5.282;2022-10-26T02:51:08;4.72;;;2.40;;
27666;SDS011;15074;50.940;5.282;2022-10-26T02:53:42;7.45;;;3.00;;
27666;SDS011;15074;50.940;5.282;2022-10-26T02:56:34;6.07;;;2.80;;
27666;SDS011;15074;50.940;5.282;2022-10-26T02:59:08;5.00;;;2.47;;
27666;SDS011;15074;50.940;5.282;2022-10-26T03:01:47;6.43;;;2.85;;
27666;SDS011;15074;50.940;5.282;2022-10-26T03:04:26;5.70;;;2.97;;
27666;SDS011;15074;50.940;5.282;2022-10-26T03:09:25;4.25;;;2.40;;
27666;SDS011;15074;50.940;5.282;2022-10-26T03:11:51;6.38;;;3.22;;
27666;SDS011;15074;50.940;5.282;2022-10-26T03:14:17;6.95;;;2.95;;
27666;SDS011;15074;50.940;5.282;2022-10-26T03:16:42;5.55;;;3.08;;
27666;SDS011;15074;50.940;5.282;2022-10-26T03:19:08;4.40;;;2.50;;
27666;SDS011;15074;50.940;5.282;2022-10-26T03:21:33;6.38;;;3.08;;
27666;SDS011;15074;50.940;5.282;2022-10-26T03:23:59;5.32;;;2.30;;
27666;SDS011;15074;50.940;5.282;2022-10-26T03:26:25;6.10;;;2.78;;
27666;SDS011;15074;50.940;5.282;2022-10-26T03:28:50;6.97;;;2.45;;
27666;SDS011;15074;50.940;5.282;2022-10-26T03:31:16;7.15;;;2.55;;
27666;SDS011;15074;50.940;5.282;2022-10-26T03:33:42;5.70;;;2.50;;
27666;SDS011;15074;50.940;5.282;2022-10-26T03:36:07;7.28;;;2.67;;
27666;SDS011;15074;50.940;5.282;2022-10-26T03:38:34;3.90;;;2.05;;
27666;SDS011;15074;50.940;5.282;2022-10-26T03:41:02;6.05;;;2.25;;
27666;SDS011;15074;50.940;5.282;2022-10-26T03:43:28;6.38;;;2.90;;
27666;SDS011;15074;50.940;5.282;2022-10-26T03:45:53;5.93;;;2.42;;
27666;SDS011;15074;50.940;5.282;2022-10-26T03:48:19;5.55;;;2.42;;
27666;SDS011;15074;50.940;5.282;2022-10-26T03:50:44;4.75;;;1.90;;
27666;SDS011;15074;50.940;5.282;2022-10-26T03:53:10;5.07;;;2.78;;
27666;SDS011;15074;50.940;5.282;2022-10-26T03:55:42;4.80;;;2.47;;
27666;SDS011;15074;50.940;5.282;2022-10-26T03:58:08;4.38;;;2.40;;
27666;SDS011;15074;50.940;5.282;2022-10-26T04:00:34;6.53;;;2.50;;
27666;SDS011;15074;50.940;5.282;2022-10-26T04:03:00;4.95;;;2.15;;
27666;SDS011;15074;50.940;5.282;2022-10-26T04:05:26;3.22;;;1.85;;
27666;SDS011;15074;50.940;5.282;2022-10-26T04:07:54;5.68;;;2.00;;
27666;SDS011;15074;50.940;5.282;2022-10-26T04:10:21;6.13;;;2.22;;
27666;SDS011;15074;50.940;5.282;2022-10-26T04:12:47;3.75;;;2.30;;
27666;SDS011;15074;50.940;5.282;2022-10-26T04:15:12;6.90;;;1.95;;
27666;SDS011;15074;50.940;5.282;2022-10-26T04:17:38;8.27;;;2.10;;
27666;SDS011;15074;50.940;5.282;2022-10-26T04:20:04;4.10;;;2.40;;
27666;SDS011;15074;50.940;5.282;2022-10-26T04:22:30;4.47;;;1.75;;
27666;SDS011;15074;50.940;5.282;2022-10-26T04:24:56;3.30;;;1.20;;
27666;SDS011;15074;50.940;5.282;2022-10-26T04:27:21;3.08;;;1.73;;
27666;SDS011;15074;50.940;5.282;2022-10-26T04:29:47;2.72;;;1.20;;
27666;SDS011;15074;50.940;5.282;2022-10-26T04:32:12;4.32;;;2.08;;
27666;SDS011;15074;50.940;5.282;2022-10-26T04:34:38;3.22;;;1.75;;
27666;SDS011;15074;50.940;5.282;2022-10-26T04:37:04;8.23;;;1.98;;
27666;SDS011;15074;50.940;5.282;2022-10-26T04:39:29;5.50;;;1.90;;
27666;SDS011;15074;50.940;5.282;2022-10-26T04:41:55;3.47;;;2.00;;
27666;SDS011;15074;50.940;5.282;2022-10-26T04:44:20;4.03;;;1.45;;
27666;SDS011;15074;50.940;5.282;2022-10-26T04:46:46;3.90;;;2.05;;
27666;SDS011;15074;50.940;5.282;2022-10-26T04:49:12;3.00;;;1.80;;
27666;SDS011;15074;50.940;5.282;2022-10-26T04:51:38;1.98;;;1.20;;
27666;SDS011;15074;50.940;5.282;2022-10-26T04:54:04;1.92;;;1.15;;
27666;SDS011;15074;50.940;5.282;2022-10-26T04:56:30;2.10;;;1.10;;
27666;SDS011;15074;50.940;5.282;2022-10-26T04:58:55;5.32;;;1.65;;
27666;SDS011;15074;50.940;5.282;2022-10-26T05:01:21;3.33;;;0.90;;
27666;SDS011;15074;50.940;5.282;2022-10-26T05:03:50;3.90;;;1.50;;
27666;SDS011;15074;50.940;5.282;2022-10-26T05:06:17;4.05;;;0.90;;
27666;SDS011;15074;50.940;5.282;2022-10-26T05:08:43;2.47;;;1.13;;
27666;SDS011;15074;50.940;5.282;2022-10-26T05:11:09;3.15;;;1.20;;
27666;SDS011;15074;50.940;5.282;2022-10-26T05:13:34;2.15;;;1.15;;
27666;SDS011;15074;50.940;5.282;2022-10-26T05:16:00;2.88;;;1.33;;
27666;SDS011;15074;50.940;5.282;2022-10-26T05:18:26;2.47;;;1.55;;
27666;SDS011;15074;50.940;5.282;2022-10-26T05:20:52;6.20;;;1.42;;
27666;SDS011;15074;50.940;5.282;2022-10-26T05:23:18;3.47;;;1.20;;
27666;SDS011;15074;50.940;5.282;2022-10-26T05:25:44;3.40;;;1.00;;
27666;SDS011;15074;50.940;5.282;2022-10-26T05:28:10;3.72;;;1.23;;
27666;SDS011;15074;50.940;5.282;2022-10-26T05:30:37;1.80;;;1.20;;
27666;SDS011;15074;50.940;5.282;2022-10-26T05:33:03;2.75;;;1.25;;
27666;SDS011;15074;50.940;5.282;2022-10-26T05:35:30;3.55;;;0.98;;
27666;SDS011;15074;50.940;5.282;2022-10-26T05:37:56;3.70;;;1.45;;
27666;SDS011;15074;50.940;5.282;2022-10-26T05:40:22;3.33;;;1.27;;
27666;SDS011;15074;50.940;5.282;2022-10-26T05:42:49;2.55;;;1.00;;
27666;SDS011;15074;50.940;5.282;2022-10-26T05:45:15;2.20;;;1.10;;
27666;SDS011;15074;50.940;5.282;2022-10-26T05:47:44;2.00;;;1.00;;
27666;SDS011;15074;50.940;5.282;2022-10-26T05:50:10;1.88;;;0.73;;
27666;SDS011;15074;50.940;5.282;2022-10-26T05:52:46;2.63;;;0.95;;
27666;SDS011;15074;50.940;5.282;2022-10-26T05:55:13;1.80;;;1.02;;
27666;SDS011;15074;50.940;5.282;2022-10-26T05:57:41;1.90;;;0.95;;
27666;SDS011;15074;50.940;5.282;2022-10-26T06:00:07;2.40;;;1.17;;
27666;SDS011;15074;50.940;5.282;2022-10-26T06:05:03;2.53;;;1.10;;
27666;SDS011;15074;50.940;5.282;2022-10-26T06:07:29;2.75;;;0.90;;
27666;SDS011;15074;50.940;5.282;2022-10-26T06:09:55;3.38;;;1.25;;
27666;SDS011;15074;50.940;5.282;2022-10-26T06:12:21;1.45;;;0.82;;
27666;SDS011;15074;50.940;5.282;2022-10-26T06:14:47;4.53;;;1.00;;
27666;SDS011;15074;50.940;5.282;2022-10-26T06:30:40;2.22;;;1.33;;
27666;SDS011;15074;50.940;5.282;2022-10-26T06:33:07;2.58;;;1.17;;
27666;SDS011;15074;50.940;5.282;2022-10-26T06:35:42;3.10;;;1.20;;
27666;SDS011;15074;50.940;5.282;2022-10-26T06:38:19;4.28;;;1.33;;
27666;SDS011;15074;50.940;5.282;2022-10-26T06:43:26;12.38;;;1.58;;
27666;SDS011;15074;50.940;5.282;2022-10-26T06:51:28;3.35;;;1.65;;
27666;SDS011;15074;50.940;5.282;2022-10-26T06:53:59;8.80;;;1.10;;
27666;SDS011;15074;50.940;5.282;2022-10-26T06:56:35;3.05;;;1.30;;
27666;SDS011;15074;50.940;5.282;2022-10-26T06:59:04;2.58;;;1.13;;
27666;SDS011;15074;50.940;5.282;2022-10-26T07:01:32;3.17;;;1.17;;
27666;SDS011;15074;50.940;5.282;2022-10-26T07:03:58;5.22;;;1.70;;
27666;SDS011;15074;50.940;5.282;2022-10-26T07:06:24;4.28;;;1.40;;
27666;SDS011;15074;50.940;5.282;2022-10-26T07:08:49;1.98;;;1.45;;
27666;SDS011;15074;50.940;5.282;2022-10-26T07:11:15;1.92;;;1.20;;
27666;SDS011;15074;50.940;5.282;2022-10-26T07:13:41;4.30;;;1.60;;
27666;SDS011;15074;50.940;5.282;2022-10-26T07:16:06;6.53;;;1.60;;
27666;SDS011;15074;50.940;5.282;2022-10-26T07:18:32;5.07;;;1.60;;
27666;SDS011;15074;50.940;5.282;2022-10-26T07:20:57;3.03;;;1.48;;
27666;SDS011;15074;50.940;5.282;2022-10-26T07:23:23;5.45;;;1.50;;
27666;SDS011;15074;50.940;5.282;2022-10-26T07:25:49;7.13;;;1.25;;
27666;SDS011;15074;50.940;5.282;2022-10-26T07:28:15;6.47;;;1.45;;
27666;SDS011;15074;50.940;5.282;2022-10-26T07:30:40;2.65;;;1.60;;
27666;SDS011;15074;50.940;5.282;2022-10-26T07:33:07;3.53;;;1.42;;
27666;SDS011;15074;50.940;5.282;2022-10-26T07:35:35;2.50;;;1.23;;
27666;SDS011;15074;50.940;5.282;2022-10-26T07:38:01;3.75;;;1.40;;
27666;SDS011;15074;50.940;5.282;2022-10-26T07:40:28;2.55;;;1.48;;
27666;SDS011;15074;50.940;5.282;2022-10-26T07:42:57;14.18;;;2.03;;
27666;SDS011;15074;50.940;5.282;2022-10-26T07:45:24;4.43;;;1.35;;
27666;SDS011;15074;50.940;5.282;2022-10-26T07:47:51;4.05;;;1.40;;
27666;SDS011;15074;50.940;5.282;2022-10-26T07:50:16;4.25;;;1.23;;
27666;SDS011;15074;50.940;5.282;2022-10-26T07:52:42;2.67;;;1.20;;
27666;SDS011;15074;50.940;5.282;2022-10-26T07:55:08;2.95;;;1.20;;
27666;SDS011;15074;50.940;5.282;2022-10-26T07:57:35;5.57;;;1.33;;
27666;SDS011;15074;50.940;5.282;2022-10-26T08:00:02;3.05;;;1.10;;
27666;SDS011;15074;50.940;5.282;2022-10-26T08:04:54;3.25;;;1.17;;
27666;SDS011;15074;50.940;5.282;2022-10-26T08:07:20;4.80;;;1.25;;
27666;SDS011;15074;50.940;5.282;2022-10-26T08:09:46;3.42;;;1.25;;
27666;SDS011;15074;50.940;5.282;2022-10-26T08:12:11;2.40;;;1.20;;
27666;SDS011;15074;50.940;5.282;2022-10-26T08:14:40;5.10;;;1.20;;
27666;SDS011;15074;50.940;5.282;2022-10-26T08:17:06;2.72;;;1.10;;
27666;SDS011;15074;50.940;5.282;2022-10-26T08:19:32;2.45;;;1.10;;
27666;SDS011;15074;50.940;5.282;2022-10-26T08:21:57;2.05;;;1.17;;
27666;SDS011;15074;50.940;5.282;2022-10-26T08:24:23;4.75;;;1.42;;
27666;SDS011;15074;50.940;5.282;2022-10-26T08:26:48;1.75;;;1.20;;
27666;SDS011;15074;50.940;5.282;2022-10-26T08:29:14;2.53;;;1.23;;
27666;SDS011;15074;50.940;5.282;2022-10-26T08:31:39;2.65;;;1.33;;
27666;SDS011;15074;50.940;5.282;2022-10-26T08:34:05;2.85;;;1.10;;
27666;SDS011;15074;50.940;5.282;2022-10-26T08:36:30;2.72;;;1.35;;
27666;SDS011;15074;50.940;5.282;2022-10-26T08:38:56;2.08;;;1.30;;
27666;SDS011;15074;50.940;5.282;2022-10-26T08:41:26;3.75;;;1.20;;
27666;SDS011;15074;50.940;5.282;2022-10-26T08:43:58;3.20;;;1.20;;
27666;SDS011;15074;50.940;5.282;2022-10-26T08:46:34;2.00;;;1.08;;
27666;SDS011;15074;50.940;5.282;2022-10-26T08:49:09;6.35;;;1.60;;
27666;SDS011;15074;50.940;5.282;2022-10-26T08:51:57;3.05;;;1.30;;
27666;SDS011;15074;50.940;5.282;2022-10-26T08:54:33;4.35;;;1.17;;
27666;SDS011;15074;50.940;5.282;2022-10-26T08:57:14;2.80;;;1.17;;
27666;SDS011;15074;50.940;5.282;2022-10-26T09:02:27;3.30;;;1.10;;
27666;SDS011;15074;50.940;5.282;2022-10-26T09:04:53;3.08;;;1.25;;
27666;SDS011;15074;50.940;5.282;2022-10-26T09:15:52;3.15;;;1.63;;
27666;SDS011;15074;50.940;5.282;2022-10-26T09:18:31;2.30;;;1.10;;
27666;SDS011;15074;50.940;5.282;2022-10-26T09:24:33;2.25;;;1.10;;
27666;SDS011;15074;50.940;5.282;2022-10-26T09:27:18;3.33;;;1.00;;
27666;SDS011;15074;50.940;5.282;2022-10-26T09:29:48;4.25;;;1.10;;
27666;SDS011;15074;50.940;5.282;2022-10-26T09:32:20;2.70;;;1.20;;
27666;SDS011;15074;50.940;5.282;2022-10-26T09:35:04;2.40;;;1.00;;
27666;SDS011;15074;50.940;5.282;2022-10-26T09:37:55;2.55;;;1.00;;
27666;SDS011;15074;50.940;5.282;2022-10-26T09:40:32;2.80;;;1.30;;
27666;SDS011;15074;50.940;5.282;2022-10-26T09:43:17;2.55;;;1.85;;
27666;SDS011;15074;50.940;5.282;2022-10-26T09:45:50;2.88;;;1.17;;
27666;SDS011;15074;50.940;5.282;2022-10-26T09:48:33;2.17;;;1.15;;
27666;SDS011;15074;50.940;5.282;2022-10-26T09:51:05;2.83;;;1.10;;
27666;SDS011;15074;50.940;5.282;2022-10-26T09:53:31;2.22;;;0.80;;
27666;SDS011;15074;50.940;5.282;2022-10-26T09:56:02;2.20;;;1.00;;
27666;SDS011;15074;50.940;5.282;2022-10-26T09:58:40;2.38;;;1.23;;
27666;SDS011;15074;50.940;5.282;2022-10-26T10:01:26;2.00;;;1.27;;
27666;SDS011;15074;50.940;5.282;2022-10-26T10:06:47;3.33;;;1.52;;
27666;SDS011;15074;50.940;5.282;2022-10-26T10:09:21;2.38;;;0.85;;
27666;SDS011;15074;50.940;5.282;2022-10-26T10:11:51;1.63;;;0.80;;
27666;SDS011;15074;50.940;5.282;2022-10-26T10:15:01;3.60;;;0.90;;
27666;SDS011;15074;50.940;5.282;2022-10-26T10:17:20;2.40;;;1.10;;
27666;SDS011;15074;50.940;5.282;2022-10-26T10:19:47;3.90;;;1.10;;
27666;SDS011;15074;50.940;5.282;2022-10-26T10:24:42;1.92;;;0.80;;
27666;SDS011;15074;50.940;5.282;2022-10-26T10:27:24;2.58;;;1.00;;
27666;SDS011;15074;50.940;5.282;2022-10-26T10:29:51;1.30;;;0.60;;
27666;SDS011;15074;50.940;5.282;2022-10-26T10:32:26;2.47;;;0.88;;
27666;SDS011;15074;50.940;5.282;2022-10-26T10:34:57;2.33;;;0.80;;
27666;SDS011;15074;50.940;5.282;2022-10-26T10:42:33;1.42;;;0.90;;
27666;SDS011;15074;50.940;5.282;2022-10-26T10:45:04;3.55;;;0.90;;
27666;SDS011;15074;50.940;5.282;2022-10-26T10:50:03;3.47;;;1.20;;
27666;SDS011;15074;50.940;5.282;2022-10-26T10:52:41;2.00;;;0.88;;
27666;SDS011;15074;50.940;5.282;2022-10-26T10:57:57;4.10;;;0.68;;
27666;SDS011;15074;50.940;5.282;2022-10-26T11:00:36;2.47;;;0.80;;
27666;SDS011;15074;50.940;5.282;2022-10-26T11:10:56;1.70;;;0.70;;
27666;SDS011;15074;50.940;5.282;2022-10-26T11:13:28;2.25;;;0.90;;
27666;SDS011;15074;50.940;5.282;2022-10-26T11:15:58;1.23;;;0.80;;
27666;SDS011;15074;50.940;5.282;2022-10-26T11:21:05;1.20;;;0.70;;
27666;SDS011;15074;50.940;5.282;2022-10-26T11:23:43;3.17;;;1.17;;
27666;SDS011;15074;50.940;5.282;2022-10-26T11:26:20;1.95;;;0.70;;
27666;SDS011;15074;50.940;5.282;2022-10-26T11:29:18;1.80;;;0.60;;
27666;SDS011;15074;50.940;5.282;2022-10-26T11:31:48;3.25;;;0.82;;
27666;SDS011;15074;50.940;5.282;2022-10-26T11:36:55;1.38;;;0.70;;
27666;SDS011;15074;50.940;5.282;2022-10-26T11:39:32;1.98;;;0.60;;
27666;SDS011;15074;50.940;5.282;2022-10-26T11:44:45;1.88;;;0.90;;
27666;SDS011;15074;50.940;5.282;2022-10-26T11:47:21;2.42;;;0.60;;
27666;SDS011;15074;50.940;5.282;2022-10-26T11:50:03;2.88;;;0.70;;
27666;SDS011;15074;50.940;5.282;2022-10-26T11:52:38;1.25;;;0.75;;
27666;SDS011;15074;50.940;5.282;2022-10-26T11:55:10;2.25;;;0.50;;
27666;SDS011;15074;50.940;5.282;2022-10-26T11:57:37;2.80;;;0.90;;
27666;SDS011;15074;50.940;5.282;2022-10-26T12:00:05;2.72;;;0.68;;
27666;SDS011;15074;50.940;5.282;2022-10-26T12:02:41;1.52;;;0.50;;
27666;SDS011;15074;50.940;5.282;2022-10-26T12:07:42;1.70;;;0.60;;
27666;SDS011;15074;50.940;5.282;2022-10-26T12:10:20;1.17;;;0.70;;
27666;SDS011;15074;50.940;5.282;2022-10-26T12:13:18;1.38;;;0.60;;
27666;SDS011;15074;50.940;5.282;2022-10-26T12:15:59;2.17;;;0.73;;
27666;SDS011;15074;50.940;5.282;2022-10-26T12:20:59;2.40;;;0.70;;
27666;SDS011;15074;50.940;5.282;2022-10-26T12:24:25;1.90;;;0.70;;
27666;SDS011;15074;50.940;5.282;2022-10-26T12:34:12;2.28;;;0.50;;
27666;SDS011;15074;50.940;5.282;2022-10-26T12:36:48;1.08;;;0.63;;
27666;SDS011;15074;50.940;5.282;2022-10-26T12:39:34;1.80;;;0.40;;
27666;SDS011;15074;50.940;5.282;2022-10-26T12:46:57;2.03;;;0.50;;
27666;SDS011;15074;50.940;5.282;2022-10-26T13:09:30;1.85;;;0.50;;
27666;SDS011;15074;50.940;5.282;2022-10-26T13:11:57;1.83;;;0.60;;
27666;SDS011;15074;50.940;5.282;2022-10-26T13:14:28;3.60;;;0.90;;
27666;SDS011;15074;50.940;5.282;2022-10-26T13:16:58;2.05;;;0.63;;
27666;SDS011;15074;50.940;5.282;2022-10-26T13:22:04;1.80;;;0.50;;
27666;SDS011;15074;50.940;5.282;2022-10-26T13:24:30;1.88;;;0.65;;
27666;SDS011;15074;50.940;5.282;2022-10-26T13:29:32;2.67;;;0.60;;
27666;SDS011;15074;50.940;5.282;2022-10-26T13:32:37;1.67;;;0.65;;
27666;SDS011;15074;50.940;5.282;2022-10-26T13:35:10;1.75;;;0.50;;
27666;SDS011;15074;50.940;5.282;2022-10-26T13:37:40;3.70;;;0.70;;
27666;SDS011;15074;50.940;5.282;2022-10-26T13:40:10;2.22;;;0.93;;
27666;SDS011;15074;50.940;5.282;2022-10-26T13:42:43;1.25;;;0.60;;
27666;SDS011;15074;50.940;5.282;2022-10-26T13:45:13;2.55;;;0.68;;
27666;SDS011;15074;50.940;5.282;2022-10-26T13:47:44;2.00;;;0.80;;
27666;SDS011;15074;50.940;5.282;2022-10-26T13:53:15;4.75;;;0.80;;
27666;SDS011;15074;50.940;5.282;2022-10-26T13:56:02;1.52;;;0.70;;
27666;SDS011;15074;50.940;5.282;2022-10-26T13:58:41;2.22;;;0.70;;
27666;SDS011;15074;50.940;5.282;2022-10-26T14:01:14;1.75;;;0.70;;
27666;SDS011;15074;50.940;5.282;2022-10-26T14:03:42;3.08;;;1.73;;
27666;SDS011;15074;50.940;5.282;2022-10-26T14:06:15;1.90;;;0.95;;
27666;SDS011;15074;50.940;5.282;2022-10-26T14:08:51;2.50;;;0.60;;
27666;SDS011;15074;50.940;5.282;2022-10-26T14:11:21;1.63;;;0.57;;
27666;SDS011;15074;50.940;5.282;2022-10-26T14:13:52;1.80;;;0.68;;
27666;SDS011;15074;50.940;5.282;2022-10-26T14:16:18;4.50;;;0.90;;
27666;SDS011;15074;50.940;5.282;2022-10-26T14:18:47;2.53;;;0.70;;
27666;SDS011;15074;50.940;5.282;2022-10-26T14:21:14;1.95;;;0.65;;
27666;SDS011;15074;50.940;5.282;2022-10-26T14:26:38;2.08;;;0.70;;
27666;SDS011;15074;50.940;5.282;2022-10-26T14:29:37;1.60;;;0.90;;
27666;SDS011;15074;50.940;5.282;2022-10-26T14:32:01;2.17;;;0.80;;
27666;SDS011;15074;50.940;5.282;2022-10-26T14:34:50;2.83;;;0.90;;
27666;SDS011;15074;50.940;5.282;2022-10-26T14:40:29;1.73;;;0.75;;
27666;SDS011;15074;50.940;5.282;2022-10-26T14:43:02;3.78;;;0.93;;
27666;SDS011;15074;50.940;5.282;2022-10-26T14:45:30;1.58;;;0.88;;
27666;SDS011;15074;50.940;5.282;2022-10-26T14:48:01;4.65;;;1.13;;
27666;SDS011;15074;50.940;5.282;2022-10-26T14:50:29;4.28;;;0.93;;
27666;SDS011;15074;50.940;5.282;2022-10-26T14:55:25;5.72;;;0.90;;
27666;SDS011;15074;50.940;5.282;2022-10-26T14:57:52;3.35;;;1.05;;
27666;SDS011;15074;50.940;5.282;2022-10-26T15:00:31;2.65;;;0.73;;
27666;SDS011;15074;50.940;5.282;2022-10-26T15:02:58;5.43;;;0.80;;
27666;SDS011;15074;50.940;5.282;2022-10-26T15:07:56;3.45;;;0.95;;
27666;SDS011;15074;50.940;5.282;2022-10-26T15:15:34;1.90;;;0.77;;
27666;SDS011;15074;50.940;5.282;2022-10-26T15:18:00;4.22;;;1.20;;
27666;SDS011;15074;50.940;5.282;2022-10-26T15:20:28;2.38;;;1.20;;
27666;SDS011;15074;50.940;5.282;2022-10-26T15:22:57;2.47;;;0.90;;
27666;SDS011;15074;50.940;5.282;2022-10-26T15:25:29;2.70;;;0.90;;
27666;SDS011;15074;50.940;5.282;2022-10-26T15:28:07;2.75;;;0.80;;
27666;SDS011;15074;50.940;5.282;2022-10-26T15:33:34;4.10;;;1.20;;
27666;SDS011;15074;50.940;5.282;2022-10-26T15:38:35;5.28;;;1.20;;
27666;SDS011;15074;50.940;5.282;2022-10-26T15:41:08;3.92;;;0.82;;
27666;SDS011;15074;50.940;5.282;2022-10-26T15:43:55;5.20;;;1.00;;
27666;SDS011;15074;50.940;5.282;2022-10-26T15:46:22;3.28;;;1.10;;
27666;SDS011;15074;50.940;5.282;2022-10-26T15:48:53;5.23;;;1.10;;
27666;SDS011;15074;50.940;5.282;2022-10-26T15:51:23;2.67;;;0.93;;
27666;SDS011;15074;50.940;5.282;2022-10-26T15:53:49;10.93;;;1.45;;
27666;SDS011;15074;50.940;5.282;2022-10-26T15:56:19;4.13;;;1.35;;
27666;SDS011;15074;50.940;5.282;2022-10-26T15:58:47;2.30;;;1.00;;
27666;SDS011;15074;50.940;5.282;2022-10-26T16:01:18;7.63;;;1.30;;
27666;SDS011;15074;50.940;5.282;2022-10-26T16:03:45;2.33;;;1.10;;
27666;SDS011;15074;50.940;5.282;2022-10-26T16:06:15;2.88;;;0.90;;
27666;SDS011;15074;50.940;5.282;2022-10-26T16:08:43;3.88;;;0.85;;
27666;SDS011;15074;50.940;5.282;2022-10-26T16:11:13;5.53;;;1.20;;
27666;SDS011;15074;50.940;5.282;2022-10-26T16:13:39;3.95;;;1.00;;
27666;SDS011;15074;50.940;5.282;2022-10-26T16:16:08;2.80;;;1.00;;
27666;SDS011;15074;50.940;5.282;2022-10-26T16:18:38;4.00;;;1.40;;
27666;SDS011;15074;50.940;5.282;2022-10-26T16:21:03;4.57;;;1.15;;
27666;SDS011;15074;50.940;5.282;2022-10-26T16:23:29;3.60;;;1.20;;
27666;SDS011;15074;50.940;5.282;2022-10-26T16:25:55;4.35;;;1.10;;
27666;SDS011;15074;50.940;5.282;2022-10-26T16:28:21;6.38;;;1.42;;
27666;SDS011;15074;50.940;5.282;2022-10-26T16:30:47;4.88;;;1.13;;
27666;SDS011;15074;50.940;5.282;2022-10-26T16:33:13;6.22;;;1.42;;
27666;SDS011;15074;50.940;5.282;2022-10-26T16:35:39;5.22;;;1.45;;
27666;SDS011;15074;50.940;5.282;2022-10-26T16:38:05;5.63;;;1.60;;
27666;SDS011;15074;50.940;5.282;2022-10-26T16:40:30;4.45;;;1.83;;
27666;SDS011;15074;50.940;5.282;2022-10-26T16:42:56;8.90;;;1.67;;
27666;SDS011;15074;50.940;5.282;2022-10-26T16:45:21;4.13;;;2.08;;
27666;SDS011;15074;50.940;5.282;2022-10-26T16:47:47;7.85;;;2.63;;
27666;SDS011;15074;50.940;5.282;2022-10-26T16:50:13;11.38;;;4.30;;
27666;SDS011;15074;50.940;5.282;2022-10-26T16:52:39;10.38;;;4.70;;
27666;SDS011;15074;50.940;5.282;2022-10-26T16:55:06;5.75;;;2.25;;
27666;SDS011;15074;50.940;5.282;2022-10-26T16:57:33;15.25;;;3.90;;
27666;SDS011;15074;50.940;5.282;2022-10-26T16:59:59;8.35;;;3.20;;
27666;SDS011;15074;50.940;5.282;2022-10-26T17:02:25;4.40;;;2.30;;
27666;SDS011;15074;50.940;5.282;2022-10-26T17:04:51;12.68;;;2.75;;
27666;SDS011;15074;50.940;5.282;2022-10-26T17:07:16;5.00;;;1.70;;
27666;SDS011;15074;50.940;5.282;2022-10-26T17:09:42;7.80;;;3.60;;
27666;SDS011;15074;50.940;5.282;2022-10-26T17:12:07;12.30;;;4.25;;
27666;SDS011;15074;50.940;5.282;2022-10-26T17:14:35;7.70;;;4.03;;
27666;SDS011;15074;50.940;5.282;2022-10-26T17:17:01;7.18;;;4.45;;
27666;SDS011;15074;50.940;5.282;2022-10-26T17:19:27;11.25;;;3.50;;
27666;SDS011;15074;50.940;5.282;2022-10-26T17:21:52;6.20;;;3.05;;
27666;SDS011;15074;50.940;5.282;2022-10-26T17:24:18;4.88;;;2.45;;
27666;SDS011;15074;50.940;5.282;2022-10-26T17:26:44;6.18;;;3.25;;
27666;SDS011;15074;50.940;5.282;2022-10-26T17:29:11;4.30;;;2.22;;
27666;SDS011;15074;50.940;5.282;2022-10-26T17:31:37;7.13;;;1.90;;
27666;SDS011;15074;50.940;5.282;2022-10-26T17:34:06;4.53;;;2.30;;
27666;SDS011;15074;50.940;5.282;2022-10-26T17:36:31;5.60;;;1.73;;
27666;SDS011;15074;50.940;5.282;2022-10-26T17:38:57;4.22;;;1.25;;
27666;SDS011;15074;50.940;5.282;2022-10-26T17:41:24;5.73;;;1.70;;
27666;SDS011;15074;50.940;5.282;2022-10-26T17:43:50;10.88;;;2.17;;
27666;SDS011;15074;50.940;5.282;2022-10-26T17:46:18;4.47;;;2.13;;
27666;SDS011;15074;50.940;5.282;2022-10-26T17:48:47;3.22;;;1.75;;
27666;SDS011;15074;50.940;5.282;2022-10-26T17:51:13;4.78;;;1.75;;
27666;SDS011;15074;50.940;5.282;2022-10-26T17:53:41;4.10;;;1.73;;
27666;SDS011;15074;50.940;5.282;2022-10-26T17:56:11;5.63;;;2.10;;
27666;SDS011;15074;50.940;5.282;2022-10-26T17:58:40;20.70;;;2.13;;
27666;SDS011;15074;50.940;5.282;2022-10-26T18:01:09;4.75;;;1.92;;
27666;SDS011;15074;50.940;5.282;2022-10-26T18:03:37;4.18;;;2.10;;